createdAt,value
2023-01-28T00:05:07.909Z,51.1
2023-01-28T00:10:30.200Z,51
2023-01-28T00:15:52.683Z,50.9
2023-01-28T00:21:15.348Z,50.9
2023-01-28T00:26:38.602Z,50.9
2023-01-28T00:32:01.574Z,50.8
2023-01-28T00:37:24.302Z,50.8
2023-01-28T00:42:47.046Z,50.8
2023-01-28T00:48:09.831Z,50.7
2023-01-28T00:53:16.979Z,50.6
2023-01-28T00:58:39.760Z,50.6
2023-01-28T01:04:04.640Z,50.6
2023-01-28T01:09:27.410Z,50.5
2023-01-28T01:14:50.377Z,50.4
2023-01-28T01:20:13.745Z,50.4
2023-01-28T01:25:35.228Z,50.4
2023-01-28T01:30:57.990Z,50.3
2023-01-28T01:36:21.407Z,50.3
2023-01-28T01:41:28.982Z,50.3
2023-01-28T01:46:52.402Z,50.2
2023-01-28T01:51:59.528Z,50.1
2023-01-28T01:57:22.020Z,50.1
2023-01-28T02:02:44.911Z,50.1
2023-01-28T02:07:52.038Z,50.1
2023-01-28T02:13:14.972Z,50
2023-01-28T02:18:30.915Z,49.9
2023-01-28T02:23:37.242Z,49.9
2023-01-28T02:28:45.183Z,49.9
2023-01-28T02:33:52.516Z,49.8
2023-01-28T02:38:44.666Z,49.8
2023-01-28T02:43:51.331Z,49.8
2023-01-28T02:48:28.127Z,50.4
2023-01-28T02:53:18.973Z,51.3
2023-01-28T02:58:25.998Z,52.2
2023-01-28T03:03:33.914Z,53.1
2023-01-28T03:08:41.364Z,54.1
2023-01-28T03:14:03.783Z,55.1
2023-01-28T03:19:26.293Z,56.2
2023-01-28T03:24:48.439Z,57.3
2023-01-28T03:30:12.257Z,58.2
2023-01-28T03:35:19.622Z,58.6
2023-01-28T03:40:26.533Z,58.7
2023-01-28T03:45:33.892Z,58.7
2023-01-28T03:50:57.132Z,58.7
2023-01-28T03:56:21.520Z,58.7
2023-01-28T04:01:44.447Z,58.6
2023-01-28T04:07:06.377Z,58.6
2023-01-28T04:26:31.869Z,58.5
2023-01-28T04:31:54.680Z,58.4
2023-01-28T04:37:17.248Z,58.4
2023-01-28T04:42:39.521Z,58.4
2023-01-28T04:48:02.446Z,58.4
2023-01-28T04:53:09.385Z,58.3
2023-01-28T04:58:31.685Z,58.3
2023-01-28T05:03:54.656Z,58.3
2023-01-28T05:09:16.644Z,58.2
2023-01-28T05:14:39.169Z,58.2
2023-01-28T05:20:02.847Z,58.1
2023-01-28T05:25:24.856Z,58.1
2023-01-28T05:30:47.299Z,58.1
2023-01-28T05:36:09.979Z,58
2023-01-28T05:41:31.818Z,58
2023-01-28T05:46:54.678Z,57.9
2023-01-28T05:52:19.060Z,57.9
2023-01-28T05:57:25.954Z,57.9
2023-01-28T06:02:49.268Z,57.8
2023-01-28T06:18:26.614Z,57.7
2023-01-28T06:23:49.015Z,57.7
2023-01-28T06:28:55.414Z,57.6
2023-01-28T06:34:02.713Z,57.6
2023-01-28T06:38:54.289Z,57.6
2023-01-28T06:44:01.354Z,57.5
2023-01-28T06:49:26.683Z,57.5
2023-01-28T06:54:52.230Z,57.4
2023-01-28T07:00:14.742Z,57.4
2023-01-28T07:05:37.752Z,57.4
2023-01-28T07:11:00.705Z,57.3
2023-01-28T07:16:23.117Z,57.3
2023-01-28T07:21:46.167Z,57.3
2023-01-28T07:27:11.629Z,57.2
2023-01-28T07:32:34.746Z,57.1
2023-01-28T07:37:57.126Z,57.1
2023-01-28T07:43:19.579Z,57.1
2023-01-28T07:48:26.254Z,57.1
2023-01-28T07:53:49.016Z,57
2023-01-28T07:59:14.275Z,56.9
2023-01-28T08:04:36.425Z,56.9
2023-01-28T08:09:59.626Z,56.9
2023-01-28T08:15:22.432Z,56.8
2023-01-28T08:20:44.635Z,56.8
2023-01-28T08:26:07.687Z,56.8
2023-01-28T08:31:30.840Z,56.7
2023-01-28T08:36:53.428Z,56.6
2023-01-28T08:42:15.368Z,56.6
2023-01-28T08:47:40.825Z,56.6
2023-01-28T08:53:05.706Z,56.5
2023-01-28T08:58:31.203Z,56.5
2023-01-28T09:04:12.381Z,56.4
2023-01-28T09:09:34.718Z,56.4
2023-01-28T09:14:57.366Z,56.4
2023-01-28T09:20:21.951Z,56.3
2023-01-28T09:25:45.190Z,56.3
2023-01-28T09:30:54.126Z,56.3
2023-01-28T09:36:17.239Z,56.2
2023-01-28T09:41:40.012Z,56.1
2023-01-28T09:47:02.649Z,56
2023-01-28T09:52:25.627Z,55.9
2023-01-28T09:57:49.323Z,55.9
2023-01-28T10:03:13.280Z,55.8
2023-01-28T10:08:36.303Z,55.8
2023-01-28T10:13:59.054Z,55.8
2023-01-28T10:19:38.704Z,55.7
2023-01-28T10:25:01.622Z,55.6
2023-01-28T10:30:23.667Z,55.6
2023-01-28T10:35:47.032Z,55.6
2023-01-28T10:41:10.170Z,55.5
2023-01-28T10:46:45.935Z,55.4
2023-01-28T10:52:08.978Z,55.4
2023-01-28T10:57:31.960Z,55.4
2023-01-28T11:02:39.828Z,55.3
2023-01-28T11:08:02.133Z,55.3
2023-01-28T11:13:40.269Z,55.2
2023-01-28T11:18:47.101Z,55.2
2023-01-28T11:24:10.080Z,55.1
2023-01-28T11:29:32.483Z,55.1
2023-01-28T11:34:55.531Z,55.1
2023-01-28T11:40:20.623Z,55
2023-01-28T11:45:44.588Z,54.9
2023-01-28T11:51:11.654Z,54.9
2023-01-28T11:57:03.868Z,54.8
2023-01-28T12:02:27.067Z,54.8
2023-01-28T12:07:49.994Z,54.8
2023-01-28T12:13:12.778Z,54.7
2023-01-28T12:18:19.824Z,54.7
2023-01-28T12:23:42.376Z,54.6
2023-01-28T12:29:05.866Z,54.6
2023-01-28T12:34:29.642Z,54.5
2023-01-28T12:39:52.270Z,54.5
2023-01-28T12:45:14.915Z,54.4
2023-01-28T12:50:38.005Z,54.4
2023-01-28T12:56:00.579Z,54.3
2023-01-28T13:01:23.898Z,54.3
2023-01-28T13:06:47.138Z,54.3
2023-01-28T13:12:09.709Z,54.3
2023-01-28T13:17:43.381Z,54.2
2023-01-28T13:23:12.452Z,54.1
2023-01-28T13:28:37.801Z,54.1
2023-01-28T13:34:00.632Z,54.1
2023-01-28T13:39:23.101Z,54
2023-01-28T13:44:45.120Z,53.9
2023-01-28T13:50:08.538Z,53.9
2023-01-28T13:55:44.963Z,53.9
2023-01-28T14:00:54.253Z,53.8
2023-01-28T14:06:17.883Z,53.8
2023-01-28T14:11:41.513Z,53.8
2023-01-28T14:17:04.650Z,53.7
2023-01-28T14:22:27.959Z,53.6
2023-01-28T14:27:50.967Z,53.6
2023-01-28T14:33:16.898Z,53.6
2023-01-28T14:38:39.749Z,53.5
2023-01-28T14:43:47.316Z,53.5
2023-01-28T14:49:11.511Z,53.4
2023-01-28T14:54:34.484Z,53.4
2023-01-28T14:59:59.533Z,53.4
2023-01-28T15:05:37.269Z,53.3
2023-01-28T15:11:00.106Z,53.3
2023-01-28T15:16:23.200Z,53.3
2023-01-28T15:21:46.143Z,53.2
2023-01-28T15:27:11.189Z,53.1
2023-01-28T15:32:36.083Z,53.1
2023-01-28T15:37:58.583Z,53.1
2023-01-28T15:43:21.677Z,53
2023-01-28T15:48:44.812Z,52.9
2023-01-28T15:54:07.600Z,52.9
2023-01-28T15:59:34.177Z,52.8
2023-01-28T16:04:57.460Z,52.7
2023-01-28T16:10:07.660Z,52.6
2023-01-28T16:15:30.952Z,52.6
2023-01-28T16:20:39.444Z,52.6
2023-01-28T16:26:03.392Z,52.5
2023-01-28T16:31:28.546Z,52.4
2023-01-28T16:46:58.047Z,52.3
2023-01-28T16:52:24.659Z,52.3
2023-01-28T16:58:07.729Z,52.3
2023-01-28T17:03:31.651Z,52.2
2023-01-28T17:08:54.915Z,52.1
2023-01-28T17:14:19.194Z,52
2023-01-28T17:30:01.073Z,51.9
2023-01-28T17:35:26.725Z,51.9
2023-01-28T17:40:50.417Z,51.8
2023-01-28T17:46:16.464Z,51.8
2023-01-28T17:51:45.053Z,51.8
2023-01-28T17:57:14.209Z,51.7
2023-01-28T18:02:47.473Z,51.6
2023-01-28T18:08:15.572Z,51.6
2023-01-28T18:13:43.358Z,51.6
2023-01-28T18:19:09.921Z,51.5
2023-01-28T18:24:48.357Z,51.4
2023-01-28T18:30:23.835Z,51.4
2023-01-28T18:35:39.671Z,51.4
2023-01-28T18:40:52.828Z,51.3
2023-01-28T18:46:14.002Z,51.3
2023-01-28T18:52:02.697Z,51.3
2023-01-28T18:57:44.822Z,51.2
2023-01-28T19:03:24.329Z,51.1
2023-01-28T19:08:45.837Z,51.1
2023-01-28T19:14:08.898Z,51.1
2023-01-28T19:19:44.726Z,51
2023-01-28T19:25:33.742Z,50.9
2023-01-28T19:31:11.791Z,50.9
2023-01-28T19:36:47.894Z,50.9
2023-01-28T19:42:23.399Z,50.8
2023-01-28T19:47:43.658Z,50.8
2023-01-28T19:53:02.516Z,50.8
2023-01-28T19:58:20.099Z,50.7
2023-01-28T20:03:42.940Z,50.6
2023-01-28T20:09:29.770Z,50.6
2023-01-28T20:15:10.466Z,50.6
2023-01-28T20:20:49.987Z,50.5
2023-01-28T20:26:27.152Z,50.4
2023-01-28T20:32:20.502Z,50.4
2023-01-28T20:37:56.582Z,50.4
2023-01-28T20:43:32.104Z,50.3
2023-01-28T20:48:52.772Z,50.3
2023-01-28T20:54:24.070Z,50.3
2023-01-28T20:59:56.392Z,50.2
2023-01-28T21:05:17.414Z,50.2
2023-01-28T21:10:36.356Z,50.1
2023-01-28T21:15:46.923Z,50.1
2023-01-28T21:20:38.886Z,50
2023-01-28T21:25:46.946Z,50
2023-01-28T21:30:54.930Z,49.9
2023-01-28T21:36:19.199Z,49.8
2023-01-28T21:41:47.033Z,49.8
2023-01-28T21:46:43.055Z,49.7
2023-01-28T21:51:50.476Z,49.7
2023-01-28T21:57:01.847Z,49.6
2023-01-28T22:02:09.456Z,49.6
2023-01-28T22:07:16.579Z,49.6
2023-01-28T22:12:08.471Z,49.5
2023-01-28T22:17:00.365Z,49.4
2023-01-28T22:22:10.590Z,49.4
2023-01-28T22:27:17.694Z,49.4
2023-01-28T22:32:25.978Z,49.4
2023-01-28T22:37:17.263Z,49.3
2023-01-28T22:42:23.952Z,49.3
2023-01-28T22:47:31.758Z,49.2
2023-01-28T22:52:38.250Z,49.2
2023-01-28T22:57:44.789Z,49.1
2023-01-28T23:03:23.660Z,49.1
2023-01-28T23:08:14.668Z,49.1
2023-01-28T23:13:36.736Z,49
2023-01-28T23:18:59.833Z,49
2023-01-28T23:24:06.599Z,48.9
2023-01-28T23:28:59.135Z,48.9
2023-01-28T23:34:06.822Z,48.8
2023-01-28T23:39:13.626Z,48.8
2023-01-28T23:44:36.087Z,48.8
2023-01-28T23:50:04.878Z,48.7
2023-01-28T23:55:26.939Z,48.7
